Terminal Aerodrome Forecast
Issued by NWS

Home | Current Version | Previous Version | Text Only | Print | Product List | Glossary On
Versions: 1 2 3 4 5 6 7 8 9 10 11 12 13 14 15 16 17 18 19 20 21
000
FTUS46 KMTR 051700
TAFSTS
TAF
KSTS 051739Z 0518/0618 VRB03KT P6SM SKC
     FM052100 19011G16KT P6SM SKC
     FM060400 16006KT P6SM FEW012
     FM060600 VRB03KT P6SM BKN010
     FM061200 VRB02KT 2SM BR OVC003=

USA.gov is the U.S. government's official web portal to all federal, state and local government web resources and services.